Terminal Aerodrome Forecast
Issued by NWS Goodland, KS

Home | Current Version | Previous Version | Text Only | Print | Product List | Glossary On
Versions: 1 2 3 4 5 6 7 8 9 10 11 12 13 14 15 16 17 18 19 20 21 22 23 24
000
FTUS43 KGLD 220407 AAC
TAFGLD
TAF AMD
KGLD 220407Z 2204/2224 15026G35KT P6SM BKN100
     FM220600 16025G33KT 3SM BR OVC008 WS020/16050KT
     FM220900 17019G27KT 1SM BR OVC002
      TEMPO 2209/2213 1/2SM FG OVC001
     FM221300 18017G25KT 5SM BR SCT010
     FM221600 19024G32KT P6SM SCT200=

USA.gov is the U.S. government's official web portal to all federal, state and local government web resources and services.